Time;durP1;ratioP1;P1;durP2;ratioP2;P2;SDS_P1;SDS_P2;PMS_P1;PMS_P2;Temp;Humidity;BMP_temperature;BMP_pressure;BME280_temperature;BME280_humidity;BME280_pressure;Samples;Min_cycle;Max_cycle;Signal;HPM_P1;HPM_P2
2022/05/22 00:01:28;;;;;;;18.02;10.60;;;;;10.60;96567.00;;;;8415419;28;20238;-67
2022/05/22 00:05:31;;;;;;;15.53;9.40;;;;;10.50;96560.00;;;;8413938;28;20261;-68
2022/05/22 00:09:36;;;;;;;20.77;11.27;;;;;10.50;96563.00;;;;8405313;28;20319;-68
2022/05/22 00:13:41;;;;;;;22.27;12.00;;;;;10.40;96552.00;;;;8417745;28;20234;-67
2022/05/22 00:17:47;;;;;;;17.30;10.50;;;;;10.30;96550.00;;;;8408697;28;20231;-67
2022/05/22 00:21:51;;;;;;;14.07;9.43;;;;;10.20;96545.00;;;;8408262;28;20346;-68
2022/05/22 00:25:56;;;;;;;27.00;12.35;;;;;10.10;96541.00;;;;8410752;28;20219;-67
2022/05/22 00:30:01;;;;;;;17.02;10.63;;;;;10.00;96541.00;;;;8406955;28;20233;-68
2022/05/22 00:34:04;;;;;;;26.50;12.73;;;;;10.00;96540.00;;;;8418719;28;20223;-68
2022/05/22 00:38:08;;;;;;;28.70;15.40;;;;;9.90;96533.00;;;;8404727;28;20242;-70
2022/05/22 00:42:18;;;;;;;19.47;10.63;;;;;9.90;96527.00;;;;8412510;28;20297;-69
2022/05/22 00:46:24;;;;;;;24.73;12.37;;;;;9.80;96514.00;;;;8413838;28;20317;-69
2022/05/22 00:50:27;;;;;;;18.53;11.90;;;;;9.70;96526.00;;;;8415486;28;20247;-68
2022/05/22 00:54:34;;;;;;;31.17;16.27;;;;;9.70;96518.00;;;;8413367;28;20773;-67
2022/05/22 00:58:38;;;;;;;30.10;17.23;;;;;9.60;96520.00;;;;8419810;28;20238;-66
2022/05/22 01:07:07;;;;;;;35.77;20.77;;;;;9.40;96524.00;;;;8379111;28;20220;-68
2022/05/22 01:11:12;;;;;;;38.40;18.90;;;;;9.30;96520.00;;;;8379559;28;20231;-68
2022/05/22 01:15:16;;;;;;;40.17;21.97;;;;;9.30;96527.00;;;;8384797;28;20230;-67
2022/05/22 01:19:23;;;;;;;53.83;27.87;;;;;9.30;96534.00;;;;8377163;28;20246;-68
2022/05/22 01:23:28;;;;;;;48.33;25.60;;;;;9.30;96535.00;;;;8393849;28;20331;-67
2022/05/22 01:27:31;;;;;;;54.80;28.87;;;;;9.30;96533.00;;;;8379295;28;20235;-68
2022/05/22 01:31:34;;;;;;;36.17;20.67;;;;;9.30;96531.00;;;;8382202;28;20224;-68
2022/05/22 01:35:38;;;;;;;45.67;21.13;;;;;9.30;96527.00;;;;8386286;28;20231;-67
2022/05/22 01:39:42;;;;;;;50.60;23.87;;;;;9.20;96527.00;;;;8374762;28;20231;-67
2022/05/22 01:43:45;;;;;;;47.40;25.20;;;;;9.20;96526.00;;;;8385889;28;20728;-67
2022/05/22 01:47:49;;;;;;;44.07;22.57;;;;;9.20;96519.00;;;;8384395;28;20776;-68
2022/05/22 01:51:52;;;;;;;30.43;15.40;;;;;9.10;96515.00;;;;8380707;28;20684;-69
2022/05/22 01:55:56;;;;;;;31.70;16.70;;;;;9.10;96513.00;;;;8384503;28;20227;-69
2022/05/22 02:00:00;;;;;;;35.97;19.07;;;;;9.10;96515.00;;;;8380080;28;20219;-70
2022/05/22 02:04:03;;;;;;;34.50;17.73;;;;;9.20;96510.00;;;;8403841;28;20732;-69
2022/05/22 02:08:23;;;;;;;34.20;18.33;;;;;9.10;96504.00;;;;8408126;28;20651;-68
2022/05/22 02:12:28;;;;;;;33.20;16.13;;;;;9.00;96507.00;;;;8406263;28;20723;-69
2022/05/22 02:16:31;;;;;;;26.30;12.67;;;;;8.90;96498.00;;;;8402691;28;20226;-69
2022/05/22 02:20:34;;;;;;;21.47;10.93;;;;;8.90;96501.00;;;;8404173;28;20219;-69
2022/05/22 02:24:38;;;;;;;23.50;12.57;;;;;8.80;96491.00;;;;8398540;28;20299;-68
2022/05/22 02:28:42;;;;;;;21.60;11.40;;;;;8.80;96492.00;;;;8409900;28;20219;-69
2022/05/22 02:32:45;;;;;;;28.27;14.83;;;;;8.70;96473.00;;;;8407057;28;20572;-69
2022/05/22 02:36:48;;;;;;;33.17;14.83;;;;;8.70;96485.00;;;;8409038;28;20223;-69
2022/05/22 02:40:52;;;;;;;27.60;13.87;;;;;8.70;96484.00;;;;8411357;28;20233;-70
2022/05/22 02:44:56;;;;;;;30.37;14.87;;;;;8.70;96486.00;;;;8419204;28;20219;-68
2022/05/22 02:48:59;;;;;;;25.77;14.27;;;;;8.70;96491.00;;;;8404741;28;20257;-69
2022/05/22 02:53:03;;;;;;;23.57;13.50;;;;;8.60;96490.00;;;;8401320;28;20237;-68
2022/05/22 02:57:07;;;;;;;31.67;16.17;;;;;8.60;96480.00;;;;8402739;28;20249;-70
2022/05/22 03:01:12;;;;;;;32.87;17.20;;;;;8.50;96489.00;;;;8432857;22;20259;-70
2022/05/22 03:05:15;;;;;;;44.07;22.00;;;;;8.40;96483.00;;;;8368260;28;20228;-68
2022/05/22 03:09:22;;;;;;;37.53;18.63;;;;;8.40;96474.00;;;;8380788;28;20636;-68
2022/05/22 03:13:25;;;;;;;36.23;19.13;;;;;8.40;96472.00;;;;8380577;28;20224;-68
2022/05/22 03:17:30;;;;;;;44.43;18.23;;;;;8.40;96474.00;;;;8384290;28;20229;-69
2022/05/22 03:21:33;;;;;;;36.40;19.07;;;;;8.40;96474.00;;;;8382426;28;20270;-70
2022/05/22 03:25:36;;;;;;;39.03;19.87;;;;;8.40;96465.00;;;;8382298;28;20318;-68
2022/05/22 03:29:40;;;;;;;32.30;18.30;;;;;8.40;96459.00;;;;8384355;28;20320;-69
2022/05/22 03:33:45;;;;;;;37.40;17.90;;;;;8.30;96459.00;;;;8366414;28;20596;-71
2022/05/22 03:37:49;;;;;;;38.03;17.87;;;;;8.30;96465.00;;;;8382394;28;20322;-69
2022/05/22 03:41:52;;;;;;;37.00;18.97;;;;;8.20;96468.00;;;;8385041;28;20239;-69
2022/05/22 03:45:55;;;;;;;30.87;15.77;;;;;8.30;96463.00;;;;8382728;28;20219;-70
2022/05/22 03:50:04;;;;;;;26.27;14.37;;;;;8.40;96459.00;;;;8382594;28;20232;-69
2022/05/22 03:54:08;;;;;;;31.50;16.57;;;;;8.40;96469.00;;;;8383200;28;20226;-68
2022/05/22 03:58:11;;;;;;;28.10;14.20;;;;;8.40;96451.00;;;;8384611;28;20222;-70
2022/05/22 04:02:14;;;;;;;24.03;13.60;;;;;8.40;96450.00;;;;8372024;28;20696;-69
2022/05/22 04:06:19;;;;;;;34.60;16.93;;;;;8.40;96453.00;;;;8360424;28;20224;-69
2022/05/22 04:10:22;;;;;;;33.73;17.80;;;;;8.50;96440.00;;;;8349634;28;20230;-69
2022/05/22 04:14:26;;;;;;;28.40;14.93;;;;;8.50;96444.00;;;;8350272;28;20625;-69
2022/05/22 04:18:29;;;;;;;23.57;14.40;;;;;8.60;96435.00;;;;8351087;28;20243;-69
2022/05/22 04:25:10;;;;;;;27.80;15.07;;;;;8.70;96437.00;;;;8350792;28;20681;-69
2022/05/22 04:26:57;;;;;;;33.40;17.30;;;;;8.80;96430.00;;;;8345311;28;20241;-70
2022/05/22 04:31:06;;;;;;;26.60;15.23;;;;;8.80;96441.00;;;;8357096;28;20224;-69
2022/05/22 04:35:09;;;;;;;30.50;17.00;;;;;8.90;96443.00;;;;8351928;28;20519;-70
2022/05/22 04:39:14;;;;;;;25.60;14.73;;;;;9.10;96431.00;;;;8344981;28;20638;-67
2022/05/22 04:43:17;;;;;;;22.07;13.70;;;;;9.20;96416.00;;;;8353823;28;20306;-69
2022/05/22 04:47:22;;;;;;;27.33;15.43;;;;;9.30;96413.00;;;;8366807;28;20231;-71
2022/05/22 04:51:27;;;;;;;38.33;19.43;;;;;9.40;96417.00;;;;8354262;28;20697;-71
2022/05/22 04:55:32;;;;;;;39.70;21.80;;;;;10.20;96426.00;;;;8363880;28;20649;-71
2022/05/22 04:59:35;;;;;;;31.47;18.87;;;;;11.20;96423.00;;;;8343397;28;20308;-69
2022/05/22 05:03:39;;;;;;;23.50;16.67;;;;;12.00;96426.00;;;;8345692;28;20312;-68
2022/05/22 05:07:43;;;;;;;23.55;15.80;;;;;12.40;96426.00;;;;8345182;28;20229;-69
2022/05/22 05:11:47;;;;;;;31.90;16.13;;;;;12.30;96418.00;;;;8344923;28;20768;-70
2022/05/22 05:15:59;;;;;;;23.70;15.53;;;;;12.10;96412.00;;;;8336861;28;20337;-70
2022/05/22 05:20:03;;;;;;;28.23;15.93;;;;;12.70;96411.00;;;;8335643;28;20232;-70
2022/05/22 05:24:06;;;;;;;21.63;14.13;;;;;13.40;96422.00;;;;8343217;28;20715;-69
2022/05/22 05:28:11;;;;;;;18.60;13.13;;;;;14.20;96432.00;;;;8321087;28;20300;-70
2022/05/22 05:32:18;;;;;;;18.25;12.55;;;;;14.70;96429.00;;;;8348711;28;20306;-68
2022/05/22 05:36:21;;;;;;;19.05;12.27;;;;;14.70;96417.00;;;;8318944;28;20233;-71
2022/05/22 05:40:25;;;;;;;16.45;12.25;;;;;15.00;96423.00;;;;8349223;28;20313;-69
2022/05/22 05:44:30;;;;;;;17.23;11.82;;;;;15.40;96443.00;;;;8344465;28;20239;-67
2022/05/22 05:48:33;;;;;;;14.10;10.93;;;;;15.80;96438.00;;;;8344309;28;20874;-67
2022/05/22 05:52:36;;;;;;;9.80;8.50;;;;;16.20;96435.00;;;;8349721;28;20245;-68
2022/05/22 05:56:40;;;;;;;13.02;8.75;;;;;16.60;96432.00;;;;8334660;28;20244;-69
2022/05/22 06:00:46;;;;;;;9.00;7.60;;;;;16.90;96428.00;;;;8359231;28;20311;-68
2022/05/22 06:04:49;;;;;;;9.82;7.50;;;;;17.20;96426.00;;;;8357587;28;20228;-68
2022/05/22 06:08:53;;;;;;;7.28;6.00;;;;;17.70;96425.00;;;;8342691;28;20227;-70
2022/05/22 06:12:57;;;;;;;11.82;5.20;;;;;18.30;96420.00;;;;8347718;28;20927;-69
2022/05/22 06:17:02;;;;;;;7.20;5.05;;;;;18.80;96417.00;;;;8348127;28;20236;-67
2022/05/22 06:21:12;;;;;;;6.40;4.78;;;;;19.20;96417.00;;;;8343173;28;20224;-69
2022/05/22 06:25:17;;;;;;;5.53;4.28;;;;;19.50;96415.00;;;;8347328;28;20304;-67
2022/05/22 06:29:21;;;;;;;4.40;4.00;;;;;20.20;96403.00;;;;8346871;28;20224;-68
2022/05/22 06:33:25;;;;;;;4.45;3.20;;;;;21.30;96409.00;;;;8346168;28;20224;-69
2022/05/22 06:37:29;;;;;;;3.97;3.08;;;;;21.90;96395.00;;;;8344744;28;20232;-69
2022/05/22 06:41:39;;;;;;;5.35;2.58;;;;;22.40;96401.00;;;;8347815;28;20263;-68
2022/05/22 06:45:42;;;;;;;2.58;2.25;;;;;23.20;96408.00;;;;8345435;28;20292;-68
2022/05/22 06:49:48;;;;;;;3.13;2.13;;;;;23.80;96400.00;;;;8351250;28;20648;-70
2022/05/22 06:53:51;;;;;;;4.85;2.10;;;;;24.40;96401.00;;;;8354662;28;20240;-66
2022/05/22 06:57:58;;;;;;;6.85;2.30;;;;;24.80;96399.00;;;;8352338;28;20232;-68
2022/05/22 07:02:02;;;;;;;9.70;2.17;;;;;25.40;96407.00;;;;8352945;28;20237;-70
2022/05/22 07:06:07;;;;;;;3.63;2.40;;;;;26.00;96404.00;;;;8340005;28;20224;-68
2022/05/22 07:10:11;;;;;;;3.55;2.20;;;;;26.30;96420.00;;;;8358673;28;20739;-68
2022/05/22 07:14:15;;;;;;;3.22;1.63;;;;;26.40;96422.00;;;;8349110;28;20259;-69
2022/05/22 07:18:18;;;;;;;2.30;1.40;;;;;26.20;96422.00;;;;8338496;28;20758;-68
2022/05/22 07:22:22;;;;;;;2.55;1.33;;;;;26.20;96415.00;;;;8355770;28;20225;-69
2022/05/22 07:26:26;;;;;;;6.68;2.10;;;;;26.30;96406.00;;;;8365653;28;20256;-66
2022/05/22 07:30:29;;;;;;;4.82;1.50;;;;;26.60;96411.00;;;;8355509;28;20323;-69
2022/05/22 07:34:33;;;;;;;3.33;1.75;;;;;26.90;96394.00;;;;8362203;28;20262;-66
2022/05/22 07:38:38;;;;;;;1.75;1.38;;;;;27.10;96395.00;;;;8358353;28;20224;-67
2022/05/22 07:42:41;;;;;;;2.15;1.48;;;;;27.20;96399.00;;;;8357344;28;20680;-67
2022/05/22 07:46:45;;;;;;;1.52;1.42;;;;;27.80;96400.00;;;;8352554;28;20225;-68
2022/05/22 07:50:54;;;;;;;1.52;1.30;;;;;28.00;96389.00;;;;8351708;28;20221;-69
2022/05/22 07:54:59;;;;;;;4.72;1.63;;;;;28.10;96391.00;;;;8367568;28;20238;-67
2022/05/22 07:59:02;;;;;;;1.80;1.65;;;;;28.50;96382.00;;;;8366167;28;20318;-69
2022/05/22 08:03:09;;;;;;;1.95;1.38;;;;;28.70;96374.00;;;;8342111;28;20965;-67
2022/05/22 08:07:16;;;;;;;2.35;1.85;;;;;29.30;96375.00;;;;8349488;28;20248;-69
2022/05/22 08:11:21;;;;;;;4.75;2.40;;;;;29.70;96371.00;;;;8347754;28;20263;-69
2022/05/22 08:15:29;;;;;;;3.72;2.00;;;;;29.90;96364.00;;;;8353870;28;20303;-67
2022/05/22 08:19:33;;;;;;;3.58;1.85;;;;;29.90;96367.00;;;;8349320;28;20263;-68
2022/05/22 08:23:36;;;;;;;3.65;1.58;;;;;30.20;96383.00;;;;8357041;28;20773;-67
2022/05/22 08:27:44;;;;;;;5.47;1.60;;;;;30.00;96379.00;;;;8355666;28;20255;-66
2022/05/22 08:31:47;;;;;;;2.40;1.90;;;;;29.90;96359.00;;;;8342746;28;20688;-68
2022/05/22 08:35:53;;;;;;;2.67;1.60;;;;;30.00;96377.00;;;;8347224;28;20228;-67
2022/05/22 08:39:56;;;;;;;1.45;1.35;;;;;30.20;96362.00;;;;8348113;28;20225;-67
2022/05/22 08:44:11;;;;;;;4.88;1.50;;;;;29.80;96367.00;;;;8337339;28;20220;-65
2022/05/22 08:48:22;;;;;;;8.18;1.85;;;;;29.80;96354.00;;;;8333109;28;20304;-69
2022/05/22 08:52:30;;;;;;;4.75;1.55;;;;;29.60;96366.00;;;;8335398;28;20667;-66
2022/05/22 09:01:05;;;;;;;4.60;1.50;;;;;28.40;96339.00;;;;8339865;28;20231;-72
2022/05/22 09:05:11;;;;;;;3.53;1.52;;;;;29.10;96334.00;;;;8349048;28;20215;-66
2022/05/22 09:09:14;;;;;;;2.80;1.52;;;;;29.50;96336.00;;;;8347816;28;20233;-66
2022/05/22 09:13:27;;;;;;;3.92;1.33;;;;;29.60;96332.00;;;;8346112;28;20272;-65
2022/05/22 09:17:47;;;;;;;1.92;1.33;;;;;28.80;96334.00;;;;8335122;28;20240;-67
2022/05/22 09:21:54;;;;;;;4.50;1.52;;;;;27.90;96332.00;;;;8342008;28;20236;-66
2022/05/22 09:26:05;;;;;;;3.47;1.25;;;;;29.10;96337.00;;;;8344710;28;20235;-71
2022/05/22 09:30:16;;;;;;;2.92;1.45;;;;;30.10;96336.00;;;;8342855;28;20227;-68
2022/05/22 09:34:29;;;;;;;4.88;1.60;;;;;31.20;96332.00;;;;8346938;28;20301;-68
2022/05/22 09:39:08;;;;;;;4.25;1.75;;;;;31.80;96327.00;;;;8341178;28;20236;-67
2022/05/22 09:43:55;;;;;;;2.10;1.48;;;;;32.30;96318.00;;;;8346138;28;20227;-67
2022/05/22 09:48:19;;;;;;;1.45;1.35;;;;;32.80;96316.00;;;;8215305;28;20234;-66
2022/05/22 09:52:37;;;;;;;1.48;1.38;;;;;33.30;96307.00;;;;8291360;28;20233;-67
2022/05/22 09:56:52;;;;;;;2.17;1.50;;;;;31.90;96306.00;;;;8348285;28;20229;-67
2022/05/22 10:01:02;;;;;;;1.85;1.20;;;;;30.80;96310.00;;;;8341940;28;20319;-67
2022/05/22 10:05:13;;;;;;;2.33;1.25;;;;;31.10;96300.00;;;;8343795;28;20278;-67
2022/05/22 10:09:32;;;;;;;2.38;1.27;;;;;31.80;96299.00;;;;8348921;28;20238;-68
2022/05/22 10:13:54;;;;;;;3.22;1.27;;;;;33.00;96289.00;;;;8342825;28;20308;-68
2022/05/22 10:18:11;;;;;;;1.17;1.17;;;;;33.90;96288.00;;;;8331963;28;20346;-68
2022/05/22 10:22:24;;;;;;;11.68;1.67;;;;;34.60;96285.00;;;;8343232;28;20225;-67
2022/05/22 10:26:41;;;;;;;3.13;1.45;;;;;34.30;96283.00;;;;8341034;28;20237;-71
2022/05/22 10:30:49;;;;;;;1.52;1.40;;;;;34.40;96285.00;;;;8342279;28;20212;-67
2022/05/22 10:34:59;;;;;;;2.35;1.77;;;;;34.50;96278.00;;;;8351233;28;20231;-66
2022/05/22 10:39:07;;;;;;;1.48;1.30;;;;;34.60;96282.00;;;;8345944;28;20310;-66
2022/05/22 10:43:11;;;;;;;2.60;1.73;;;;;35.40;96277.00;;;;8347809;28;20733;-68
2022/05/22 10:47:25;;;;;;;1.25;1.23;;;;;35.40;96273.00;;;;8349686;28;20225;-67
2022/05/22 10:51:30;;;;;;;2.80;1.40;;;;;35.30;96270.00;;;;8345801;28;20235;-66
2022/05/22 10:55:39;;;;;;;1.30;1.20;;;;;34.40;96270.00;;;;8351330;28;20236;-65
2022/05/22 10:59:44;;;;;;;1.50;1.40;;;;;33.90;96261.00;;;;8349633;28;20247;-68
2022/05/22 11:03:48;;;;;;;2.80;1.67;;;;;33.60;96266.00;;;;8333539;28;20260;-66
2022/05/22 11:07:55;;;;;;;2.42;1.30;;;;;34.10;96269.00;;;;8344564;28;20267;-66
2022/05/22 11:12:09;;;;;;;3.03;1.58;;;;;33.70;96257.00;;;;8340428;28;20660;-68
2022/05/22 11:16:16;;;;;;;3.50;1.77;;;;;33.90;96257.00;;;;8342297;28;20316;-67
2022/05/22 11:20:25;;;;;;;3.17;1.30;;;;;33.60;96251.00;;;;8337767;28;20229;-69
2022/05/22 11:24:39;;;;;;;4.22;1.30;;;;;33.40;96248.00;;;;8341942;28;20231;-68
2022/05/22 11:29:06;;;;;;;2.60;1.27;;;;;34.50;96246.00;;;;8343357;28;20680;-69
2022/05/22 11:33:26;;;;;;;2.33;1.25;;;;;35.30;96233.00;;;;8342774;28;20225;-68
2022/05/22 11:37:40;;;;;;;1.30;1.30;;;;;34.40;96239.00;;;;8345808;28;20260;-70
2022/05/22 11:41:48;;;;;;;1.95;1.42;;;;;32.70;96222.00;;;;8336986;28;20233;-67
2022/05/22 11:45:56;;;;;;;3.30;1.63;;;;;31.60;96219.00;;;;8350772;28;20235;-68
2022/05/22 11:50:12;;;;;;;2.25;1.50;;;;;32.50;96215.00;;;;8341823;28;20319;-67
2022/05/22 11:54:31;;;;;;;2.88;1.70;;;;;33.00;96212.00;;;;8344154;28;20614;-67
2022/05/22 11:58:37;;;;;;;2.40;1.33;;;;;33.10;96206.00;;;;8342975;28;20320;-67
2022/05/22 12:02:52;;;;;;;1.90;1.48;;;;;33.60;96201.00;;;;8343457;28;20414;-69
2022/05/22 12:07:09;;;;;;;1.70;1.50;;;;;34.40;96196.00;;;;8342502;28;20231;-69
2022/05/22 12:11:18;;;;;;;2.10;1.65;;;;;33.70;96190.00;;;;8340256;28;20924;-67
2022/05/22 12:15:35;;;;;;;1.80;1.30;;;;;33.70;96190.00;;;;8338036;28;20237;-66
2022/05/22 12:19:45;;;;;;;5.38;1.58;;;;;34.20;96185.00;;;;8353977;28;20239;-67
2022/05/22 12:23:55;;;;;;;1.45;1.30;;;;;34.30;96185.00;;;;8341557;28;20787;-66
2022/05/22 12:28:00;;;;;;;1.38;1.27;;;;;34.30;96175.00;;;;8339027;28;20597;-67
2022/05/22 12:32:12;;;;;;;1.80;1.50;;;;;33.80;96179.00;;;;8339716;28;20230;-64
2022/05/22 12:36:23;;;;;;;2.47;1.40;;;;;33.10;96168.00;;;;8342454;28;20224;-65
2022/05/22 12:40:59;;;;;;;2.55;1.60;;;;;32.50;96160.00;;;;8344636;28;20224;-68
2022/05/22 12:45:03;;;;;;;1.83;1.67;;;;;31.50;96158.00;;;;8340262;28;20220;-68
2022/05/22 12:49:09;;;;;;;1.55;1.45;;;;;30.10;96151.00;;;;8343762;28;20224;-67
2022/05/22 12:53:20;;;;;;;2.60;1.38;;;;;29.20;96141.00;;;;8342797;28;20221;-67
2022/05/22 12:57:25;;;;;;;1.70;1.60;;;;;28.50;96140.00;;;;8345584;28;20225;-67
2022/05/22 13:01:39;;;;;;;1.92;1.40;;;;;27.90;96137.00;;;;8341789;28;20392;-66
2022/05/22 13:05:56;;;;;;;2.15;1.70;;;;;28.00;96133.00;;;;8344226;28;20609;-67
2022/05/22 13:10:30;;;;;;;2.08;1.67;;;;;28.50;96130.00;;;;8336041;28;20220;-68
2022/05/22 13:14:41;;;;;;;2.30;1.45;;;;;29.20;96124.00;;;;8336259;28;20221;-66
2022/05/22 13:18:49;;;;;;;2.33;1.38;;;;;30.40;96118.00;;;;8342368;28;20705;-66
2022/05/22 13:23:04;;;;;;;2.75;1.75;;;;;31.60;96113.00;;;;8350183;28;20259;-66
2022/05/22 13:27:09;;;;;;;2.33;1.40;;;;;32.00;96113.00;;;;8364202;28;20241;-69
2022/05/22 13:31:27;;;;;;;1.65;1.25;;;;;32.50;96111.00;;;;8341714;28;20277;-66
2022/05/22 13:35:34;;;;;;;1.85;1.40;;;;;32.90;96107.00;;;;8351360;28;20232;-66
2022/05/22 13:39:52;;;;;;;2.65;1.60;;;;;32.60;96109.00;;;;8349477;28;20234;-67
2022/05/22 13:44:20;;;;;;;1.80;1.40;;;;;33.10;96098.00;;;;8353957;28;20934;-67
2022/05/22 13:48:56;;;;;;;1.83;1.50;;;;;34.00;96099.00;;;;8346002;28;20310;-65
2022/05/22 13:53:29;;;;;;;1.50;1.40;;;;;34.10;96089.00;;;;8334976;28;20721;-64
2022/05/22 13:57:37;;;;;;;1.70;1.20;;;;;33.60;96089.00;;;;8350477;28;20238;-66
2022/05/22 14:01:43;;;;;;;1.75;1.40;;;;;33.80;96078.00;;;;8350715;28;20225;-64
2022/05/22 14:05:51;;;;;;;2.05;1.35;;;;;33.70;96082.00;;;;8342278;28;20642;-65
2022/05/22 14:09:57;;;;;;;1.63;1.40;;;;;34.10;96071.00;;;;8341398;28;20263;-67
2022/05/22 14:14:03;;;;;;;1.38;1.27;;;;;34.40;96071.00;;;;8353441;28;20262;-67
2022/05/22 14:18:13;;;;;;;1.42;1.20;;;;;33.20;96071.00;;;;8342996;28;20876;-65
2022/05/22 14:22:18;;;;;;;2.28;1.58;;;;;32.30;96067.00;;;;8354824;28;20676;-67
2022/05/22 14:26:24;;;;;;;4.13;1.40;;;;;31.80;96061.00;;;;8348111;28;20312;-65
2022/05/22 14:30:34;;;;;;;2.72;1.70;;;;;31.00;96068.00;;;;8339319;28;20220;-65
2022/05/22 14:34:43;;;;;;;1.60;1.50;;;;;31.40;96059.00;;;;8331306;28;20311;-64
2022/05/22 14:38:48;;;;;;;2.30;1.50;;;;;32.20;96046.00;;;;8336852;28;20242;-64
2022/05/22 14:42:59;;;;;;;2.58;1.23;;;;;33.60;96047.00;;;;8334235;28;20262;-65
2022/05/22 14:47:04;;;;;;;3.88;1.55;;;;;33.80;96037.00;;;;8336146;28;20230;-65
2022/05/22 14:51:28;;;;;;;2.10;1.50;;;;;33.40;96040.00;;;;8339459;28;20262;-66
2022/05/22 14:55:36;;;;;;;4.38;1.55;;;;;33.00;96036.00;;;;8339688;28;20216;-65
2022/05/22 14:59:58;;;;;;;3.30;1.50;;;;;32.50;96035.00;;;;8347423;28;20445;-66
2022/05/22 15:04:04;;;;;;;2.72;1.35;;;;;32.20;96035.00;;;;8338103;28;20274;-66
2022/05/22 15:08:21;;;;;;;2.80;1.58;;;;;32.30;96031.00;;;;8339149;28;20278;-66
2022/05/22 15:12:40;;;;;;;2.00;1.70;;;;;32.50;96015.00;;;;8334182;28;20236;-66
2022/05/22 15:16:47;;;;;;;4.72;1.20;;;;;32.70;96023.00;;;;8348447;28;20750;-65
2022/05/22 15:21:00;;;;;;;1.40;1.30;;;;;33.00;96012.00;;;;8345164;28;20267;-65
2022/05/22 15:25:30;;;;;;;5.85;1.52;;;;;33.00;96014.00;;;;8343221;28;20736;-66
2022/05/22 15:29:36;;;;;;;2.03;1.30;;;;;32.80;96012.00;;;;8338390;28;20642;-66
2022/05/22 15:33:49;;;;;;;2.25;1.30;;;;;33.10;96014.00;;;;8342843;28;20705;-66
2022/05/22 15:37:56;;;;;;;5.15;1.50;;;;;33.50;96014.00;;;;8342695;28;20247;-65
2022/05/22 15:42:14;;;;;;;3.53;1.70;;;;;33.60;96019.00;;;;8334062;28;20220;-65
2022/05/22 15:46:25;;;;;;;1.48;1.23;;;;;33.80;96015.00;;;;8345296;28;20227;-66
2022/05/22 15:50:47;;;;;;;2.13;1.40;;;;;33.60;96015.00;;;;8338134;28;20315;-67
2022/05/22 15:54:51;;;;;;;2.47;1.23;;;;;33.90;96015.00;;;;8341180;28;20233;-67
2022/05/22 15:58:55;;;;;;;2.17;1.70;;;;;34.10;96013.00;;;;8341570;28;20243;-67
2022/05/22 16:03:00;;;;;;;1.52;1.42;;;;;33.80;96017.00;;;;8337002;28;20240;-66
2022/05/22 16:07:05;;;;;;;1.92;1.55;;;;;33.50;96019.00;;;;8339835;28;20236;-66
2022/05/22 16:11:09;;;;;;;3.08;1.50;;;;;33.20;96022.00;;;;8340783;28;20224;-65
2022/05/22 16:15:15;;;;;;;2.67;1.60;;;;;32.40;96024.00;;;;8337020;28;20640;-64
2022/05/22 16:19:23;;;;;;;2.45;1.40;;;;;31.50;96012.00;;;;8342550;28;20264;-65
2022/05/22 16:23:28;;;;;;;2.38;1.50;;;;;31.00;96006.00;;;;8334887;28;20573;-67
2022/05/22 16:27:31;;;;;;;2.60;1.50;;;;;30.60;96003.00;;;;8347385;28;20252;-65
2022/05/22 16:31:37;;;;;;;1.52;1.40;;;;;29.90;96013.00;;;;8330159;28;20228;-64
2022/05/22 16:35:41;;;;;;;1.90;1.50;;;;;29.60;96015.00;;;;8340181;28;20228;-65
2022/05/22 16:39:46;;;;;;;3.50;1.52;;;;;29.10;96018.00;;;;8337113;28;20588;-64
2022/05/22 16:43:49;;;;;;;1.60;1.50;;;;;28.80;96019.00;;;;8336528;28;20208;-64
2022/05/22 16:56:36;;;;;;;7.30;2.00;;;;;28.10;96025.00;;;;8346985;28;20216;-64
2022/05/22 17:00:42;;;;;;;9.40;1.80;;;;;27.90;96026.00;;;;8336187;28;20309;-63
2022/05/22 17:04:45;;;;;;;2.20;1.80;;;;;27.80;96029.00;;;;8331424;28;20299;-63
2022/05/22 17:08:51;;;;;;;2.78;1.45;;;;;27.80;96017.00;;;;8350516;28;20311;-64
2022/05/22 17:12:57;;;;;;;2.85;1.70;;;;;27.80;96022.00;;;;8357419;28;20275;-65
2022/05/22 17:22:32;;;;;;;4.25;1.60;;;;;27.40;96018.00;;;;8359983;28;20307;-62
2022/05/22 17:27:06;;;;;;;4.32;1.50;;;;;27.20;96023.00;;;;8361605;28;20312;-62
2022/05/22 17:31:43;;;;;;;3.38;1.85;;;;;26.70;96019.00;;;;8360869;28;20212;-63
2022/05/22 17:35:47;;;;;;;1.55;1.45;;;;;26.40;96022.00;;;;8361147;28;20239;-63
2022/05/22 17:40:23;;;;;;;1.80;1.70;;;;;26.00;96028.00;;;;8360714;28;20633;-64
2022/05/22 17:44:27;;;;;;;2.67;1.70;;;;;25.60;96030.00;;;;8361453;28;20311;-64
2022/05/22 17:49:01;;;;;;;5.22;1.80;;;;;25.20;96012.00;;;;8360467;28;20231;-63
2022/05/22 17:53:42;;;;;;;2.58;1.75;;;;;24.80;96015.00;;;;8359020;28;20266;-63
2022/05/22 17:58:13;;;;;;;2.38;1.88;;;;;24.40;96013.00;;;;8360310;28;20304;-63
2022/05/22 18:02:51;;;;;;;4.18;1.80;;;;;24.00;96017.00;;;;8359139;28;20258;-63
2022/05/22 18:07:28;;;;;;;6.25;1.90;;;;;23.70;96010.00;;;;8361047;28;20240;-64
2022/05/22 18:16:42;;;;;;;2.13;1.60;;;;;23.10;96007.00;;;;8360243;28;20224;-64
2022/05/22 18:21:21;;;;;;;3.03;1.90;;;;;22.90;96006.00;;;;8360506;28;20224;-64
2022/05/22 18:25:56;;;;;;;2.00;1.83;;;;;22.60;96009.00;;;;8359765;28;20232;-63
2022/05/22 18:30:33;;;;;;;3.05;1.67;;;;;22.20;96002.00;;;;8355048;28;20220;-62
2022/05/22 18:35:10;;;;;;;1.80;1.70;;;;;21.80;96002.00;;;;8360136;28;20217;-63
2022/05/22 18:39:45;;;;;;;5.35;2.25;;;;;21.40;95994.00;;;;8366528;28;20240;-63
2022/05/22 18:44:22;;;;;;;2.63;2.00;;;;;21.10;95987.00;;;;8366677;28;20402;-65
2022/05/22 18:48:56;;;;;;;1.95;1.85;;;;;20.70;95978.00;;;;8365756;28;20315;-65
2022/05/22 18:53:33;;;;;;;4.68;2.03;;;;;20.40;95971.00;;;;8366403;28;20272;-64
2022/05/22 18:58:12;;;;;;;3.25;2.30;;;;;20.10;95972.00;;;;8366388;28;20216;-63
2022/05/22 19:02:49;;;;;;;2.33;1.83;;;;;19.80;95962.00;;;;8365277;28;20229;-64
2022/05/22 19:07:21;;;;;;;6.00;2.53;;;;;19.60;95967.00;;;;8365938;28;20227;-64
2022/05/22 19:12:03;;;;;;;2.40;2.00;;;;;19.30;95963.00;;;;8365431;28;20683;-64
2022/05/22 19:16:43;;;;;;;4.20;2.00;;;;;19.30;95963.00;;;;8365513;28;20212;-64
2022/05/22 19:21:19;;;;;;;3.80;1.83;;;;;19.40;95958.00;;;;8365783;28;20567;-64
2022/05/22 19:25:52;;;;;;;3.40;1.98;;;;;19.20;95952.00;;;;8363435;28;20225;-64
2022/05/22 19:30:30;;;;;;;8.70;2.40;;;;;19.00;95960.00;;;;8365812;28;20252;-63
2022/05/22 19:35:07;;;;;;;5.30;2.38;;;;;18.80;95957.00;;;;8364931;28;20422;-64
2022/05/22 19:39:41;;;;;;;2.10;1.92;;;;;18.80;95958.00;;;;8361851;28;20227;-64
2022/05/22 19:44:21;;;;;;;5.32;1.65;;;;;18.90;95939.00;;;;8364217;28;20292;-64
2022/05/22 19:48:56;;;;;;;3.88;2.17;;;;;18.70;95944.00;;;;8364212;28;20625;-63
2022/05/22 19:53:31;;;;;;;4.60;2.22;;;;;18.60;95932.00;;;;8365270;28;20324;-64
2022/05/22 20:02:58;;;;;;;5.57;2.47;;;;;18.50;95923.00;;;;8364116;28;20628;-64
2022/05/22 20:07:36;;;;;;;3.92;2.35;;;;;18.60;95920.00;;;;8363733;28;20267;-64
2022/05/22 20:12:15;;;;;;;2.22;2.05;;;;;18.60;95915.00;;;;8364207;28;20618;-63
2022/05/22 20:16:49;;;;;;;2.85;2.20;;;;;18.70;95910.00;;;;8363153;28;20239;-63
2022/05/22 20:21:26;;;;;;;5.18;2.00;;;;;18.70;95914.00;;;;8364555;28;20264;-64
2022/05/22 20:25:56;;;;;;;2.50;2.03;;;;;18.70;95906.00;;;;8363155;28;20620;-64
2022/05/22 20:30:35;;;;;;;13.02;2.63;;;;;18.60;95905.00;;;;8363804;28;20303;-64
2022/05/22 20:35:12;;;;;;;3.65;2.10;;;;;18.50;95892.00;;;;8363196;28;20296;-64
2022/05/22 20:39:50;;;;;;;3.22;1.92;;;;;18.40;95881.00;;;;8361232;28;20295;-64
2022/05/22 20:44:23;;;;;;;2.35;1.95;;;;;18.40;95878.00;;;;8363178;28;20224;-65
2022/05/22 20:49:02;;;;;;;7.13;1.80;;;;;18.40;95879.00;;;;8362644;28;20608;-63
2022/05/22 20:53:36;;;;;;;4.15;2.17;;;;;18.50;95886.00;;;;8362735;28;20666;-66
2022/05/22 20:58:13;;;;;;;1.98;1.88;;;;;18.40;95893.00;;;;8362370;28;20553;-64
2022/05/22 21:02:18;;;;;;;3.60;1.85;;;;;18.50;95888.00;;;;8362345;28;20231;-64
2022/05/22 21:06:23;;;;;;;6.57;2.08;;;;;18.50;95882.00;;;;8362257;28;20237;-65
2022/05/22 21:10:56;;;;;;;4.88;1.92;;;;;18.50;95888.00;;;;8362761;28;20242;-64
2022/05/22 21:14:59;;;;;;;3.55;2.20;;;;;18.60;95931.00;;;;8362063;28;20248;-63
2022/05/22 21:19:37;;;;;;;3.22;1.80;;;;;18.50;95935.00;;;;8362835;28;20339;-65
2022/05/22 21:28:38;;;;;;;4.15;2.22;;;;;18.30;95955.00;;;;8361140;28;20307;-64
2022/05/22 21:33:15;;;;;;;2.05;1.88;;;;;18.10;95947.00;;;;8362588;28;20299;-65